Time;durP1;ratioP1;P1;durP2;ratioP2;P2;SDS_P1;SDS_P2;PMS_P1;PMS_P2;Temp;Humidity;BMP_temperature;BMP_pressure;BME280_temperature;BME280_humidity;BME280_pressure;Samples;Min_cycle;Max_cycle;Signal;HPM_P1;HPM_P2
2023/09/14 00:00:35;;;;;;;7.10;6.40;;;18.60;15.00;;;;;;5054795;28;20562;-47
2023/09/14 00:03:02;;;;;;;5.97;5.47;;;18.60;29.20;;;;;;5054770;28;20510;-45
2023/09/14 00:05:28;;;;;;;6.60;5.77;;;18.60;55.60;;;;;;5053966;28;20204;-46
2023/09/14 00:07:54;;;;;;;10.33;6.10;;;18.60;99.90;;;;;;5055059;28;20479;-46
2023/09/14 00:10:20;;;;;;;6.00;5.47;;;18.60;99.90;;;;;;5038231;28;20466;-46
2023/09/14 00:12:46;;;;;;;8.17;5.60;;;18.60;99.90;;;;;;5055069;28;20221;-46
2023/09/14 00:15:11;;;;;;;10.20;6.67;;;18.60;99.90;;;;;;5055819;28;20527;-46
2023/09/14 00:17:37;;;;;;;12.63;7.70;;;18.60;99.90;;;;;;5056075;28;20189;-46
2023/09/14 00:20:06;;;;;;;6.70;6.00;;;18.60;99.90;;;;;;5055210;28;20196;-46
2023/09/14 00:22:32;;;;;;;11.57;7.10;;;18.60;99.90;;;;;;5054854;28;20220;-46
2023/09/14 00:24:58;;;;;;;6.73;6.13;;;18.60;99.90;;;;;;5054624;28;20420;-46
2023/09/14 00:27:23;;;;;;;8.17;7.03;;;18.60;99.90;;;;;;5055450;28;20420;-47
2023/09/14 00:29:49;;;;;;;7.73;6.77;;;18.60;99.90;;;;;;5055320;28;20542;-46
2023/09/14 00:32:14;;;;;;;6.70;6.10;;;18.50;99.90;;;;;;5054953;28;20189;-46
2023/09/14 00:34:40;;;;;;;7.50;6.30;;;18.50;99.90;;;;;;5053675;28;20182;-46
2023/09/14 00:37:06;;;;;;;7.30;6.60;;;18.50;99.90;;;;;;5054142;28;20189;-46
2023/09/14 00:39:31;;;;;;;9.10;6.73;;;18.50;99.90;;;;;;5035818;28;20497;-46
2023/09/14 00:41:57;;;;;;;7.10;6.40;;;18.50;99.90;;;;;;5053237;28;20213;-46
2023/09/14 00:44:22;;;;;;;7.50;6.83;;;18.50;99.90;;;;;;5053440;28;20189;-46
2023/09/14 00:46:48;;;;;;;9.50;7.00;;;18.40;99.90;;;;;;5053254;28;20182;-46
2023/09/14 00:49:14;;;;;;;8.40;6.80;;;18.40;99.90;;;;;;5053305;28;20310;-46
2023/09/14 00:51:40;;;;;;;12.90;7.27;;;18.40;99.90;;;;;;5053414;28;20212;-46
2023/09/14 00:54:06;;;;;;;8.30;7.43;;;18.30;1.00;;;;;;5036300;28;20416;-46
2023/09/14 00:56:31;;;;;;;7.57;6.87;;;18.30;99.90;;;;;;5036885;28;20235;-46
2023/09/14 00:58:58;;;;;;;7.60;6.90;;;18.30;99.90;;;;;;5053079;28;20259;-47
2023/09/14 01:01:23;;;;;;;7.80;7.10;;;18.30;99.90;;;;;;5035772;28;20209;-48
2023/09/14 01:03:49;;;;;;;7.87;7.07;;;18.30;1.00;;;;;;5052815;28;20431;-47
2023/09/14 01:06:15;;;;;;;9.23;8.30;;;18.20;1.00;;;;;;5053941;28;20252;-47
2023/09/14 01:08:40;;;;;;;7.40;6.70;;;18.30;1.00;;;;;;5036872;28;20468;-47
2023/09/14 01:11:07;;;;;;;7.77;6.97;;;18.30;1.00;;;;;;5053943;28;20265;-47
2023/09/14 01:13:51;;;;;;;8.27;6.80;;;18.30;1.00;;;;;;5057707;28;20177;-45
2023/09/14 01:16:25;;;;;;;9.27;8.37;;;18.30;1.00;;;;;;5058305;28;20829;-46
2023/09/14 01:19:35;;;;;;;7.20;6.60;;;18.30;1.00;;;;;;5040889;28;20694;-46
2023/09/14 01:22:22;;;;;;;8.83;7.67;;;18.30;1.00;;;;;;5037599;28;20475;-46
2023/09/14 01:24:52;;;;;;;8.40;7.47;;;18.40;1.00;;;;;;5058309;28;20400;-46
2023/09/14 01:27:18;;;;;;;11.40;8.50;;;18.40;1.00;;;;;;5057050;28;20832;-46
2023/09/14 01:29:43;;;;;;;9.00;8.10;;;18.40;1.00;;;;;;5057691;28;20654;-46
2023/09/14 01:32:09;;;;;;;8.73;8.03;;;18.40;1.00;;;;;;5058053;28;20428;-46
2023/09/14 01:34:35;;;;;;;8.93;8.03;;;18.40;1.00;;;;;;5057697;28;20188;-46
2023/09/14 01:37:04;;;;;;;8.67;7.73;;;18.40;1.00;;;;;;5057283;28;20522;-46
2023/09/14 01:39:30;;;;;;;8.77;7.97;;;18.40;1.00;;;;;;5057045;28;20502;-46
2023/09/14 01:41:57;;;;;;;9.67;8.77;;;18.40;1.00;;;;;;5039232;28;20456;-46
2023/09/14 01:44:26;;;;;;;8.80;7.93;;;18.40;1.00;;;;;;5056580;28;20424;-46
2023/09/14 01:46:53;;;;;;;9.37;8.47;;;18.40;1.00;;;;;;5056501;28;20814;-46
2023/09/14 01:49:19;;;;;;;9.50;8.60;;;18.40;1.00;;;;;;5057389;28;20420;-46
2023/09/14 01:51:44;;;;;;;9.97;8.97;;;18.40;1.00;;;;;;5057966;28;20412;-46
2023/09/14 01:54:10;;;;;;;9.50;8.60;;;18.40;1.00;;;;;;5057489;28;20181;-46
2023/09/14 01:56:36;;;;;;;10.70;9.80;;;18.40;1.00;;;;;;5056658;28;20442;-46
2023/09/14 01:59:02;;;;;;;8.90;8.00;;;18.40;1.00;;;;;;5056235;28;20296;-46
2023/09/14 02:01:27;;;;;;;12.20;11.00;;;18.50;1.00;;;;;;5038785;28;20908;-46
2023/09/14 02:03:53;;;;;;;12.40;11.30;;;18.50;1.00;;;;;;5056813;28;20425;-46
2023/09/14 02:06:19;;;;;;;11.33;10.23;;;18.50;1.00;;;;;;5056718;28;20204;-46
2023/09/14 02:08:45;;;;;;;11.27;10.17;;;18.40;1.00;;;;;;5056495;28;20865;-46
2023/09/14 02:11:13;;;;;;;11.70;9.97;;;18.30;1.00;;;;;;5057346;28;20432;-46
2023/09/14 02:13:39;;;;;;;10.47;9.47;;;18.30;1.00;;;;;;5056722;28;20300;-46
2023/09/14 02:16:05;;;;;;;10.97;9.87;;;18.30;1.00;;;;;;5057120;28;20534;-46
2023/09/14 02:18:30;;;;;;;11.10;10.03;;;18.40;1.00;;;;;;5056957;28;20408;-47
2023/09/14 02:20:56;;;;;;;9.60;8.70;;;18.40;1.00;;;;;;5057241;28;20217;-47
2023/09/14 02:23:22;;;;;;;10.80;9.80;;;18.30;1.00;;;;;;5055987;28;20539;-47
2023/09/14 02:25:49;;;;;;;9.90;9.00;;;18.30;1.00;;;;;;5056916;28;20229;-46
2023/09/14 02:28:15;;;;;;;11.40;9.07;;;18.30;1.00;;;;;;5056391;28;20256;-46
2023/09/14 02:30:42;;;;;;;10.20;9.20;;;18.30;1.00;;;;;;5056053;28;20417;-46
2023/09/14 02:33:08;;;;;;;7.60;6.90;;;18.20;1.00;;;;;;5056759;28;20186;-46
2023/09/14 02:35:38;;;;;;;9.60;8.67;;;18.20;6.10;;;;;;5055807;28;20898;-46
2023/09/14 02:38:04;;;;;;;10.20;9.20;;;18.30;1.00;;;;;;5056409;28;20535;-46
2023/09/14 02:40:30;;;;;;;9.00;8.20;;;18.30;1.00;;;;;;5056144;28;20531;-46
2023/09/14 02:42:56;;;;;;;7.97;7.27;;;18.30;1.00;;;;;;5055788;28;20480;-45
2023/09/14 02:45:21;;;;;;;8.83;7.90;;;18.30;1.00;;;;;;5056606;28;20401;-46
2023/09/14 02:47:47;;;;;;;7.67;7.07;;;18.30;1.00;;;;;;5055859;28;20259;-46
2023/09/14 02:50:13;;;;;;;8.33;7.53;;;18.20;1.00;;;;;;5056091;28;20186;-46
2023/09/14 02:52:38;;;;;;;9.10;8.30;;;18.20;1.00;;;;;;5071829;28;20229;-46
2023/09/14 02:55:04;;;;;;;7.83;7.10;;;18.30;1.00;;;;;;5075844;28;20189;-46
2023/09/14 02:57:30;;;;;;;7.63;6.83;;;18.30;1.00;;;;;;5075457;28;20547;-46
2023/09/14 02:59:55;;;;;;;8.77;7.97;;;18.20;1.00;;;;;;5075114;28;20468;-46
2023/09/14 03:02:22;;;;;;;8.07;7.27;;;18.30;1.00;;;;;;5073586;28;20225;-46
2023/09/14 03:04:48;;;;;;;7.07;6.17;;;18.30;1.00;;;;;;5074983;28;20711;-46
2023/09/14 03:07:14;;;;;;;9.57;8.67;;;18.40;1.00;;;;;;5075030;28;20442;-46
2023/09/14 03:09:40;;;;;;;11.33;6.30;;;18.50;1.00;;;;;;5075893;28;20534;-46
2023/09/14 03:12:06;;;;;;;8.60;7.37;;;18.40;1.00;;;;;;5075355;28;20518;-46
2023/09/14 03:14:31;;;;;;;6.80;6.20;;;18.50;1.00;;;;;;5075456;28;20274;-46
2023/09/14 03:16:58;;;;;;;7.50;6.83;;;18.40;1.00;;;;;;5075031;28;20419;-46
2023/09/14 03:19:24;;;;;;;8.53;7.73;;;18.40;1.00;;;;;;5074735;28;20184;-46
2023/09/14 03:21:49;;;;;;;7.00;6.40;;;18.40;1.00;;;;;;5075273;28;20470;-47
2023/09/14 03:24:15;;;;;;;8.07;7.37;;;18.40;1.00;;;;;;5073853;28;20423;-46
2023/09/14 03:26:41;;;;;;;8.00;7.30;;;18.50;1.00;;;;;;5074129;28;20352;-46
2023/09/14 03:29:06;;;;;;;7.70;7.00;;;18.50;1.00;;;;;;5071932;28;20431;-46
2023/09/14 03:31:32;;;;;;;7.63;6.93;;;18.50;1.00;;;;;;5073541;28;20193;-46
2023/09/14 03:33:58;;;;;;;8.20;7.50;;;18.50;1.00;;;;;;5073522;28;20598;-46
2023/09/14 03:36:24;;;;;;;8.00;7.30;;;18.50;1.00;;;;;;5074457;28;20415;-47
2023/09/14 03:38:49;;;;;;;7.50;6.90;;;18.50;1.00;;;;;;5074898;28;20242;-47
2023/09/14 03:41:15;;;;;;;7.27;6.67;;;18.50;1.00;;;;;;5073711;28;20776;-46
2023/09/14 03:43:41;;;;;;;8.30;7.60;;;18.50;1.00;;;;;;5076047;28;20185;-46
2023/09/14 03:46:07;;;;;;;7.97;7.30;;;18.50;1.00;;;;;;5057019;28;20281;-46
2023/09/14 03:48:33;;;;;;;7.60;6.90;;;18.50;1.00;;;;;;5056961;28;20419;-46
2023/09/14 03:51:00;;;;;;;8.63;7.83;;;18.50;1.00;;;;;;5073204;28;20540;-46
2023/09/14 03:53:26;;;;;;;8.80;8.00;;;18.60;1.00;;;;;;5074005;28;20258;-46
2023/09/14 03:55:53;;;;;;;7.70;6.87;;;18.60;1.00;;;;;;5073506;28;20848;-47
2023/09/14 03:58:18;;;;;;;7.50;6.80;;;18.60;1.00;;;;;;5056734;28;20505;-46
2023/09/14 04:00:44;;;;;;;9.23;8.33;;;18.60;1.00;;;;;;5072669;28;20755;-39
2023/09/14 04:03:10;;;;;;;8.20;7.40;;;18.60;1.00;;;;;;5071761;28;20209;-39
2023/09/14 04:05:36;;;;;;;8.70;7.80;;;18.60;1.00;;;;;;5073712;28;20181;-39
2023/09/14 04:08:02;;;;;;;8.63;7.93;;;18.60;1.00;;;;;;5073502;28;20431;-42
2023/09/14 04:10:27;;;;;;;7.50;6.80;;;18.60;1.00;;;;;;5074194;28;20177;-38
2023/09/14 04:13:30;;;;;;;8.90;8.20;;;18.60;1.00;;;;;;5071921;28;20211;-40
2023/09/14 04:15:57;;;;;;;7.93;7.23;;;18.60;1.00;;;;;;5073580;28;20471;-43
2023/09/14 04:18:23;;;;;;;8.77;7.97;;;18.60;1.00;;;;;;5072151;28;20501;-39
2023/09/14 04:20:50;;;;;;;7.63;6.93;;;18.70;99.90;;;;;;5070240;28;20430;-41
2023/09/14 04:23:15;;;;;;;11.17;10.07;;;18.60;99.90;;;;;;5070840;28;20541;-41
2023/09/14 04:25:47;;;;;;;11.37;10.30;;;18.60;99.90;;;;;;5053679;28;20760;-42
2023/09/14 04:28:13;;;;;;;13.77;12.43;;;18.60;99.90;;;;;;5072225;28;20185;-41
2023/09/14 04:30:44;;;;;;;14.40;13.00;;;18.50;1.00;;;;;;5070676;28;20427;-40
2023/09/14 04:33:14;;;;;;;14.23;12.40;;;18.40;1.00;;;;;;5054284;28;20538;-42
2023/09/14 04:35:40;;;;;;;11.90;10.83;;;18.30;1.00;;;;;;5073226;28;20408;-41
2023/09/14 04:38:06;;;;;;;10.80;9.80;;;18.30;1.00;;;;;;5073858;28;20476;-42
2023/09/14 04:40:37;;;;;;;15.13;11.20;;;18.30;1.00;;;;;;5074055;28;20423;-38
2023/09/14 04:43:03;;;;;;;11.00;10.00;;;18.20;1.00;;;;;;5073485;28;20471;-45
2023/09/14 04:45:29;;;;;;;13.97;12.67;;;18.20;31.50;;;;;;5072268;28;20411;-40
2023/09/14 04:47:55;;;;;;;14.10;12.73;;;18.20;1.00;;;;;;5077568;28;20438;-41
2023/09/14 04:50:21;;;;;;;16.10;14.60;;;18.20;1.00;;;;;;5077934;28;20220;-43
2023/09/14 04:52:46;;;;;;;14.33;12.93;;;18.20;13.10;;;;;;5075010;28;20510;-41
2023/09/14 04:55:12;;;;;;;10.97;9.97;;;18.10;73.20;;;;;;5073723;28;20218;-39
2023/09/14 04:57:38;;;;;;;12.43;11.43;;;18.10;99.90;;;;;;5073197;28;20429;-40
2023/09/14 05:00:04;;;;;;;13.10;11.90;;;18.10;99.90;;;;;;5072258;28;20325;-42
2023/09/14 05:02:30;;;;;;;13.70;12.50;;;18.20;99.90;;;;;;5071347;28;20211;-38
2023/09/14 05:04:56;;;;;;;15.83;14.40;;;18.20;7.70;;;;;;5073422;28;20527;-39
2023/09/14 05:07:21;;;;;;;14.63;13.30;;;18.20;45.80;;;;;;5075509;28;20514;-39
2023/09/14 05:09:47;;;;;;;14.47;13.17;;;18.20;99.90;;;;;;5075718;28;20291;-40
2023/09/14 05:12:13;;;;;;;12.53;11.40;;;18.00;99.90;;;;;;5074843;28;20282;-40
2023/09/14 05:14:39;;;;;;;13.70;12.50;;;18.00;99.90;;;;;;5073928;28;20250;-39
2023/09/14 05:17:05;;;;;;;12.73;11.63;;;18.00;99.90;;;;;;5073303;28;20768;-40
2023/09/14 05:19:30;;;;;;;14.50;13.23;;;18.00;99.90;;;;;;5071805;28;20207;-41
2023/09/14 05:21:56;;;;;;;16.27;14.67;;;18.10;69.10;;;;;;5070567;28;20208;-39
2023/09/14 05:24:21;;;;;;;14.93;13.53;;;18.10;1.00;;;;;;5070987;28;20585;-39
2023/09/14 05:26:50;;;;;;;12.90;11.70;;;18.00;1.00;;;;;;5072113;28;20244;-41
2023/09/14 05:29:15;;;;;;;13.43;12.03;;;18.00;83.80;;;;;;5073076;28;20373;-38
2023/09/14 05:31:41;;;;;;;11.27;10.27;;;18.00;77.00;;;;;;5057145;28;20770;-39
2023/09/14 05:34:06;;;;;;;13.00;11.70;;;18.00;99.90;;;;;;5072008;28;20196;-43
2023/09/14 05:36:32;;;;;;;13.80;12.37;;;18.10;30.20;;;;;;5073770;28;20177;-40
2023/09/14 05:38:58;;;;;;;12.47;11.23;;;18.00;1.00;;;;;;5053985;28;20546;-40
2023/09/14 05:41:23;;;;;;;15.00;12.17;;;18.00;26.50;;;;;;5073895;28;20201;-39
2023/09/14 05:43:49;;;;;;;19.23;12.03;;;18.00;19.80;;;;;;5054994;28;20208;-42
2023/09/14 05:46:14;;;;;;;12.80;11.60;;;17.90;1.00;;;;;;5053007;28;20549;-38
2023/09/14 05:48:40;;;;;;;12.67;11.47;;;18.00;1.00;;;;;;5051358;28;20216;-39
2023/09/14 05:51:05;;;;;;;11.20;10.10;;;18.00;1.00;;;;;;5051989;28;20477;-39
2023/09/14 05:53:31;;;;;;;12.00;10.90;;;18.00;1.00;;;;;;5052990;28;20185;-41
2023/09/14 05:55:57;;;;;;;11.53;10.37;;;18.20;1.00;;;;;;5053107;28;20574;-39
2023/09/14 05:58:22;;;;;;;11.23;10.23;;;18.30;1.00;;;;;;5035555;28;20454;-40
2023/09/14 06:00:48;;;;;;;10.03;9.03;;;18.40;1.00;;;;;;5054178;28;20317;-39
2023/09/14 06:03:13;;;;;;;9.77;8.90;;;18.50;1.00;;;;;;5054520;28;20583;-39
2023/09/14 06:05:39;;;;;;;9.03;8.13;;;18.60;1.00;;;;;;5036837;28;20213;-42
2023/09/14 06:08:06;;;;;;;9.57;8.70;;;18.70;1.00;;;;;;5035032;28;20185;-40
2023/09/14 06:10:34;;;;;;;11.80;10.70;;;18.70;99.90;;;;;;5063761;28;20443;-45
2023/09/14 06:13:00;;;;;;;15.23;10.43;;;18.80;99.90;;;;;;5056056;28;20442;-41
2023/09/14 06:15:26;;;;;;;11.03;10.03;;;18.80;99.90;;;;;;5072843;28;20458;-41
2023/09/14 06:17:52;;;;;;;11.73;10.60;;;18.90;99.90;;;;;;5069402;28;20876;-42
2023/09/14 06:20:17;;;;;;;10.03;9.13;;;18.90;99.90;;;;;;5071445;28;20196;-41
2023/09/14 06:22:43;;;;;;;10.90;9.80;;;18.90;99.90;;;;;;5073702;28;20208;-40
2023/09/14 06:25:09;;;;;;;12.17;10.70;;;18.90;36.90;;;;;;5069255;28;20185;-40
2023/09/14 06:27:34;;;;;;;9.90;9.00;;;18.90;31.90;;;;;;5069112;28;20244;-41
2023/09/14 06:30:02;;;;;;;10.47;9.43;;;18.90;53.60;;;;;;5070336;28;20193;-40
2023/09/14 06:32:28;;;;;;;10.77;9.67;;;18.90;76.80;;;;;;5072850;28;20188;-41
2023/09/14 06:34:54;;;;;;;9.77;8.60;;;18.90;1.00;;;;;;5073969;28;20510;-42
2023/09/14 06:37:20;;;;;;;12.07;10.97;;;18.90;1.00;;;;;;5071313;28;20797;-40
2023/09/14 06:39:46;;;;;;;10.97;9.90;;;18.90;1.00;;;;;;5073169;28;20283;-40
2023/09/14 06:42:12;;;;;;;11.80;9.37;;;18.90;1.00;;;;;;5073662;28;20820;-44
2023/09/14 06:44:39;;;;;;;12.20;10.10;;;18.80;1.00;;;;;;5073237;28;20419;-41
2023/09/14 06:47:05;;;;;;;9.57;8.67;;;18.80;1.00;;;;;;5070354;28;20495;-45
2023/09/14 06:49:30;;;;;;;10.90;9.90;;;18.80;1.70;;;;;;5069607;28;20947;-40
2023/09/14 06:51:56;;;;;;;10.40;9.30;;;18.90;1.00;;;;;;5051656;28;20518;-39
2023/09/14 06:54:22;;;;;;;9.07;8.27;;;18.90;1.00;;;;;;5070496;28;20235;-42
2023/09/14 06:56:47;;;;;;;11.23;9.90;;;19.00;1.00;;;;;;5068811;28;20201;-39
2023/09/14 06:59:14;;;;;;;13.43;12.13;;;19.10;1.00;;;;;;5051980;28;20182;-39
2023/09/14 07:01:40;;;;;;;10.17;9.23;;;19.10;99.90;;;;;;5051874;28;20205;-39
2023/09/14 07:04:05;;;;;;;11.07;9.97;;;19.10;99.90;;;;;;5051082;28;20698;-40
2023/09/14 07:06:33;;;;;;;11.33;10.20;;;19.20;99.90;;;;;;5051100;28;20201;-39
2023/09/14 07:08:59;;;;;;;11.40;10.30;;;19.20;99.90;;;;;;5052228;28;20181;-41
2023/09/14 07:11:25;;;;;;;11.47;10.47;;;19.20;99.90;;;;;;5062431;28;20740;-43
2023/09/14 07:13:50;;;;;;;10.10;9.20;;;19.20;99.90;;;;;;5073549;28;20177;-38
2023/09/14 07:16:16;;;;;;;8.77;8.07;;;19.20;99.90;;;;;;5071886;28;20431;-38
2023/09/14 07:18:42;;;;;;;10.60;9.60;;;19.30;99.90;;;;;;5072133;28;20251;-39
2023/09/14 07:21:08;;;;;;;10.20;9.30;;;19.30;99.90;;;;;;5070329;28;20253;-39
2023/09/14 07:23:33;;;;;;;11.20;10.10;;;19.20;24.60;;;;;;5073596;28;20184;-41
2023/09/14 07:25:59;;;;;;;11.77;10.40;;;19.20;78.70;;;;;;5074316;28;20772;-42
2023/09/14 07:28:24;;;;;;;13.80;12.53;;;19.30;99.90;;;;;;5071747;28;20185;-40
2023/09/14 07:30:51;;;;;;;12.33;11.00;;;19.10;1.00;;;;;;5071870;28;20612;-39
2023/09/14 07:33:18;;;;;;;8.00;7.30;;;19.10;99.90;;;;;;5074214;28;20537;-42
2023/09/14 07:35:45;;;;;;;11.40;9.90;;;19.20;99.90;;;;;;5072386;28;20419;-41
2023/09/14 07:38:14;;;;;;;10.57;9.47;;;19.30;1.00;;;;;;5071268;28;20774;-42
2023/09/14 07:40:41;;;;;;;12.60;11.50;;;19.30;1.00;;;;;;5070880;28;20588;-39
2023/09/14 07:43:06;;;;;;;10.23;9.33;;;19.30;99.90;;;;;;5072237;28;20479;-42
2023/09/14 07:45:35;;;;;;;11.80;10.70;;;19.20;1.00;;;;;;5070658;28;20427;-40
2023/09/14 07:48:02;;;;;;;10.23;9.23;;;19.20;1.00;;;;;;5072739;28;20505;-40
2023/09/14 07:50:28;;;;;;;13.60;12.20;;;19.30;1.00;;;;;;5072366;28;20418;-40
2023/09/14 07:52:54;;;;;;;14.43;13.03;;;19.30;99.90;;;;;;5072918;28;20423;-42
2023/09/14 07:55:19;;;;;;;14.67;13.23;;;19.20;99.90;;;;;;5071845;28;20452;-40
2023/09/14 07:57:45;;;;;;;13.50;12.20;;;19.10;99.90;;;;;;5072569;28;20211;-41
2023/09/14 08:00:11;;;;;;;11.93;10.00;;;19.10;99.90;;;;;;5072795;28;20200;-41
2023/09/14 08:02:37;;;;;;;12.63;11.33;;;19.10;99.90;;;;;;5071985;28;20223;-39
2023/09/14 08:05:02;;;;;;;13.73;12.33;;;18.90;1.00;;;;;;5072201;28;20412;-38
2023/09/14 08:07:28;;;;;;;11.30;9.27;;;18.90;1.00;;;;;;5072173;28;20476;-38
2023/09/14 08:09:53;;;;;;;10.40;9.43;;;19.10;1.00;;;;;;5072482;28;20246;-39
2023/09/14 08:12:19;;;;;;;12.53;10.57;;;19.20;1.00;;;;;;5072668;28;20289;-39
2023/09/14 08:14:45;;;;;;;11.17;9.37;;;19.40;99.90;;;;;;5068564;28;20216;-41
2023/09/14 08:17:11;;;;;;;10.30;9.37;;;19.60;1.00;;;;;;5064003;28;20196;-39
2023/09/14 08:19:37;;;;;;;10.07;9.07;;;19.80;99.90;;;;;;5073662;28;20216;-40
2023/09/14 08:22:03;;;;;;;10.53;9.43;;;19.90;1.00;;;;;;5073422;28;20586;-39
2023/09/14 08:24:29;;;;;;;12.13;10.83;;;20.10;1.00;;;;;;5073685;28;20177;-39
2023/09/14 08:26:55;;;;;;;10.90;9.80;;;20.10;99.90;;;;;;5071704;28;20442;-39
2023/09/14 08:29:21;;;;;;;10.50;9.53;;;20.10;99.90;;;;;;5071917;28;20499;-41
2023/09/14 08:31:50;;;;;;;10.53;8.57;;;20.20;99.90;;;;;;5072729;28;20781;-42
2023/09/14 08:34:16;;;;;;;9.73;8.83;;;20.40;99.90;;;;;;5062019;28;20553;-41
2023/09/14 08:36:42;;;;;;;10.67;9.20;;;20.50;1.00;;;;;;5048858;28;20455;-41
2023/09/14 08:39:08;;;;;;;11.30;8.07;;;20.60;1.00;;;;;;5049182;28;20742;-41
2023/09/14 08:41:37;;;;;;;10.20;9.27;;;20.70;1.00;;;;;;5050658;28;20209;-39
2023/09/14 08:44:04;;;;;;;9.17;7.60;;;20.90;99.90;;;;;;5053125;28;20202;-40
2023/09/14 08:46:32;;;;;;;9.43;8.53;;;21.10;99.90;;;;;;5054038;28;20743;-38
2023/09/14 08:48:59;;;;;;;9.70;7.97;;;21.30;1.00;;;;;;5034179;28;20425;-43
2023/09/14 08:51:26;;;;;;;7.93;7.10;;;21.40;1.00;;;;;;5052757;28;20527;-38
2023/09/14 08:53:52;;;;;;;9.67;5.80;;;21.60;1.00;;;;;;5053016;28;20439;-40
2023/09/14 08:56:20;;;;;;;9.73;8.40;;;21.70;99.90;;;;;;5051736;28;20737;-41
2023/09/14 08:58:45;;;;;;;11.60;10.17;;;21.80;91.30;;;;;;5012791;28;20849;-41
2023/09/14 09:01:13;;;;;;;8.67;6.97;;;21.80;1.00;;;;;;5051974;28;20530;-41
2023/09/14 09:03:39;;;;;;;8.30;7.50;;;21.70;1.00;;;;;;5054690;28;20475;-42
2023/09/14 09:06:05;;;;;;;12.20;7.50;;;21.70;1.00;;;;;;5053314;28;20432;-39
2023/09/14 09:08:32;;;;;;;10.13;9.13;;;21.80;1.00;;;;;;5050736;28;20407;-40
2023/09/14 09:10:59;;;;;;;9.93;8.87;;;21.90;1.00;;;;;;5031657;28;20182;-40
2023/09/14 09:13:33;;;;;;;8.23;7.50;;;21.90;1.00;;;;;;5032560;28;20748;-40
2023/09/14 09:15:59;;;;;;;9.80;8.87;;;22.10;1.00;;;;;;5049902;28;20509;-41
2023/09/14 09:18:25;;;;;;;8.43;7.63;;;22.20;1.00;;;;;;5050050;28;20436;-39
2023/09/14 09:20:51;;;;;;;7.57;6.77;;;22.20;1.00;;;;;;5051195;28;20444;-38
2023/09/14 09:23:19;;;;;;;7.83;6.97;;;22.20;1.00;;;;;;5050423;28;20733;-39
2023/09/14 09:25:49;;;;;;;7.53;6.60;;;22.30;1.00;;;;;;5047893;28;20185;-41
2023/09/14 09:28:15;;;;;;;8.47;7.70;;;22.40;99.90;;;;;;5032039;28;20526;-40
2023/09/14 09:30:41;;;;;;;10.00;7.87;;;22.50;99.90;;;;;;5048780;28;20519;-41
2023/09/14 09:33:07;;;;;;;7.73;7.03;;;22.60;99.90;;;;;;5050671;28;20486;-41
2023/09/14 09:35:34;;;;;;;6.87;6.27;;;22.60;99.90;;;;;;5053748;28;20181;-40
2023/09/14 09:38:02;;;;;;;8.67;6.90;;;22.70;99.90;;;;;;5050753;28;20417;-41
2023/09/14 09:40:33;;;;;;;7.57;6.87;;;22.90;99.90;;;;;;5019076;28;20467;-39
2023/09/14 09:43:03;;;;;;;7.07;6.37;;;23.00;99.90;;;;;;5053618;28;20487;-42
2023/09/14 09:45:29;;;;;;;8.40;7.50;;;23.60;99.90;;;;;;5053736;28;20432;-41
2023/09/14 09:47:55;;;;;;;8.40;7.27;;;24.30;99.90;;;;;;5053455;28;20439;-39
2023/09/14 09:50:22;;;;;;;8.00;7.30;;;24.50;99.90;;;;;;5053614;28;20268;-41
2023/09/14 09:52:48;;;;;;;7.40;6.70;;;24.60;92.70;;;;;;5072167;28;20235;-41
2023/09/14 09:55:32;;;;;;;7.90;7.20;;;24.80;57.80;;;;;;5071785;28;20439;-41
2023/09/14 09:57:59;;;;;;;7.40;6.80;;;25.00;46.50;;;;;;5072827;28;20824;-41
2023/09/14 10:00:35;;;;;;;8.03;7.33;;;25.10;13.80;;;;;;5072054;28;20428;-41
2023/09/14 10:03:01;;;;;;;10.27;7.83;;;25.00;1.00;;;;;;5071378;28;20757;-40
2023/09/14 10:05:36;;;;;;;8.40;7.60;;;24.70;1.00;;;;;;5071871;28;20550;-41
2023/09/14 10:08:02;;;;;;;8.87;8.17;;;24.40;1.00;;;;;;5071968;28;20426;-40
2023/09/14 10:10:30;;;;;;;8.83;8.03;;;24.30;1.00;;;;;;5075033;28;20833;-41
2023/09/14 10:12:56;;;;;;;9.20;8.30;;;24.30;1.00;;;;;;5075259;28;20541;-41
2023/09/14 10:15:25;;;;;;;10.50;8.13;;;24.30;1.00;;;;;;5072903;28;20431;-40
2023/09/14 10:17:56;;;;;;;7.47;6.60;;;24.50;1.00;;;;;;5074953;28;20450;-40
2023/09/14 10:20:23;;;;;;;5.90;5.40;;;25.20;1.00;;;;;;5074614;28;20412;-39
2023/09/14 10:22:49;;;;;;;9.20;8.30;;;26.00;1.00;;;;;;5055779;28;20732;-38
2023/09/14 10:25:16;;;;;;;7.13;6.43;;;26.60;1.00;;;;;;5054130;28;20558;-39
2023/09/14 10:27:42;;;;;;;7.30;6.60;;;27.00;1.00;;;;;;5051170;28;20848;-41
2023/09/14 10:30:14;;;;;;;7.40;6.70;;;27.80;1.00;;;;;;5072108;28;20431;-41
2023/09/14 10:32:40;;;;;;;7.00;6.30;;;27.70;1.00;;;;;;5072893;28;20434;-42
2023/09/14 10:35:06;;;;;;;5.67;5.17;;;28.30;1.00;;;;;;5056913;28;20412;-42
2023/09/14 10:37:33;;;;;;;6.47;5.57;;;29.00;1.00;;;;;;5055046;28;20204;-42
2023/09/14 10:40:01;;;;;;;7.10;5.73;;;29.50;1.00;;;;;;5072449;28;20490;-41
2023/09/14 10:42:26;;;;;;;8.73;7.93;;;30.00;1.00;;;;;;5072747;28;20470;-41
2023/09/14 10:44:52;;;;;;;7.43;6.77;;;29.80;1.00;;;;;;5052882;28;20448;-40
2023/09/14 10:47:21;;;;;;;7.30;6.70;;;29.80;1.00;;;;;;5053171;28;20188;-41
2023/09/14 10:49:48;;;;;;;6.30;5.80;;;29.10;1.00;;;;;;5056134;28;20177;-41
2023/09/14 10:52:26;;;;;;;7.40;6.70;;;28.40;1.00;;;;;;5073862;28;21127;-41
2023/09/14 10:54:52;;;;;;;5.73;5.23;;;27.70;1.00;;;;;;5071316;28;20891;-41
2023/09/14 10:57:23;;;;;;;7.37;6.67;;;27.10;1.00;;;;;;5070440;28;20443;-41
2023/09/14 10:59:57;;;;;;;5.83;5.30;;;26.60;1.00;;;;;;5053138;28;20254;-41
2023/09/14 11:02:43;;;;;;;6.83;6.03;;;26.70;1.00;;;;;;5072596;28;20772;-40
2023/09/14 11:05:23;;;;;;;5.20;4.80;;;27.30;1.00;;;;;;5059001;28;20778;-40
2023/09/14 11:08:00;;;;;;;4.77;4.33;;;28.20;1.00;;;;;;5074336;28;20423;-40
2023/09/14 11:10:27;;;;;;;4.83;4.43;;;29.30;1.00;;;;;;5072873;28;20893;-39
2023/09/14 11:13:19;;;;;;;4.57;4.27;;;30.00;1.00;;;;;;5072187;28;20840;-42
2023/09/14 11:15:46;;;;;;;7.40;4.10;;;30.30;1.00;;;;;;5070640;28;20802;-40
2023/09/14 11:18:16;;;;;;;4.67;4.13;;;30.40;1.00;;;;;;5073347;28;20445;-39
2023/09/14 11:20:44;;;;;;;4.83;4.30;;;30.80;1.00;;;;;;5070361;28;20397;-43
2023/09/14 11:23:10;;;;;;;4.63;4.23;;;31.30;1.00;;;;;;5073185;28;20470;-39
2023/09/14 11:25:39;;;;;;;6.00;4.40;;;31.20;1.00;;;;;;5071149;28;20666;-39
2023/09/14 11:28:06;;;;;;;4.90;4.40;;;30.70;1.00;;;;;;5070690;28;20711;-43
2023/09/14 11:30:33;;;;;;;6.17;5.30;;;30.10;1.00;;;;;;5071575;28;20463;-42
2023/09/14 11:33:05;;;;;;;4.60;4.20;;;29.60;1.00;;;;;;5066886;28;20523;-40
2023/09/14 11:35:36;;;;;;;4.90;4.50;;;29.00;1.00;;;;;;5052639;28;20416;-41
2023/09/14 11:38:03;;;;;;;3.97;3.67;;;28.40;1.00;;;;;;5071462;28;20698;-42
2023/09/14 11:40:34;;;;;;;7.40;4.90;;;28.00;1.00;;;;;;5070131;28;20434;-42
2023/09/14 11:43:38;;;;;;;5.40;4.20;;;27.60;1.00;;;;;;5068603;28;20826;-39
2023/09/14 11:45:59;;;;;;;4.13;3.83;;;27.50;1.00;;;;;;5068945;28;20431;-40
2023/09/14 11:48:29;;;;;;;4.53;4.10;;;27.20;1.00;;;;;;5069713;28;20855;-41
2023/09/14 11:50:54;;;;;;;5.33;4.83;;;26.90;1.00;;;;;;5069611;28;20506;-45
2023/09/14 11:53:22;;;;;;;4.40;4.00;;;26.90;1.00;;;;;;5070114;28;20463;-41
2023/09/14 11:55:49;;;;;;;5.30;3.93;;;27.50;1.00;;;;;;5071136;28;20571;-39
2023/09/14 11:58:15;;;;;;;4.43;4.03;;;28.50;1.00;;;;;;5071302;28;20510;-44
2023/09/14 12:00:52;;;;;;;4.20;3.73;;;29.60;1.00;;;;;;5054538;28;20703;-42
2023/09/14 12:03:18;;;;;;;4.53;4.13;;;30.60;1.00;;;;;;5053665;28;20662;-39
2023/09/14 12:05:44;;;;;;;3.67;3.37;;;31.40;1.00;;;;;;5071864;28;20476;-41
2023/09/14 12:08:11;;;;;;;5.23;4.73;;;32.10;1.00;;;;;;5054076;28;20177;-41
2023/09/14 12:10:38;;;;;;;3.37;3.10;;;32.90;1.00;;;;;;5059945;28;20432;-39
2023/09/14 12:13:16;;;;;;;3.33;3.13;;;33.40;1.00;;;;;;5072934;28;20832;-38
2023/09/14 12:15:47;;;;;;;4.17;3.77;;;33.90;1.00;;;;;;5072170;28;20498;-39
2023/09/14 12:18:16;;;;;;;3.47;3.17;;;34.50;1.00;;;;;;5072662;28;20677;-39
2023/09/14 12:20:43;;;;;;;3.77;3.47;;;34.70;1.00;;;;;;5074431;28;20435;-41
2023/09/14 12:23:09;;;;;;;4.57;3.67;;;35.10;1.00;;;;;;5055602;28;20540;-40
2023/09/14 12:25:37;;;;;;;3.93;3.40;;;34.80;1.00;;;;;;5054195;28;20424;-43
2023/09/14 12:28:04;;;;;;;4.23;3.83;;;34.00;1.00;;;;;;5034330;28;20436;-41
2023/09/14 12:30:30;;;;;;;5.63;3.60;;;32.70;1.00;;;;;;5052704;28;20391;-42
2023/09/14 12:32:56;;;;;;;3.77;3.20;;;31.50;1.00;;;;;;5052812;28;20472;-39
2023/09/14 12:35:23;;;;;;;4.03;3.63;;;30.40;1.00;;;;;;5054005;28;20279;-41
2023/09/14 12:37:50;;;;;;;4.43;3.53;;;29.70;1.00;;;;;;5053474;28;20864;-41
2023/09/14 12:40:16;;;;;;;3.70;3.40;;;29.20;1.00;;;;;;5052353;28;20452;-39
2023/09/14 12:42:42;;;;;;;3.70;3.30;;;28.70;1.00;;;;;;5051079;28;20958;-40
2023/09/14 12:45:16;;;;;;;4.03;3.63;;;28.30;1.00;;;;;;5051674;28;20213;-39
2023/09/14 12:47:44;;;;;;;3.77;3.37;;;28.00;1.00;;;;;;5037906;28;20504;-41